Time;durP1;ratioP1;P1;durP2;ratioP2;P2;SDS_P1;SDS_P2;PMS_P1;PMS_P2;Temp;Humidity;BMP_temperature;BMP_pressure;BME280_temperature;BME280_humidity;BME280_pressure;Samples;Min_cycle;Max_cycle;Signal;HPM_P1;HPM_P2
2021/09/07 04:39:24;;;;;;;7.95;6.17;;;;;;;4.67;78.15;101566.38;1702745;81;21072;-39
2021/09/07 04:44:54;;;;;;;10.32;5.17;;;;;;;4.88;77.80;101566.84;1710525;81;21018;-36
2021/09/07 04:47:52;;;;;;;8.53;5.08;;;;;;;5.02;77.47;101573.50;1701365;82;21645;-39
2021/09/07 04:50:24;;;;;;;6.95;4.45;;;;;;;5.18;77.29;101564.25;1707727;82;21889;-36
2021/09/07 04:56:20;;;;;;;5.65;3.92;;;;;;;5.46;77.18;101568.87;1680824;81;20991;-39
2021/09/07 04:59:12;;;;;;;12.13;4.17;;;;;;;5.68;76.80;101569.30;1666544;81;21604;-37
2021/09/07 05:01:50;;;;;;;5.83;3.47;;;;;;;5.80;76.70;101571.53;1670776;83;21724;-36
2021/09/07 05:04:21;;;;;;;7.05;4.40;;;;;;;5.94;76.98;101569.08;1683310;83;21018;-39
2021/09/07 05:07:42;;;;;;;10.70;5.00;;;;;;;6.07;77.33;101571.73;1644783;83;21256;-39
2021/09/07 05:11:29;;;;;;;9.38;4.50;;;;;;;6.18;77.66;101570.85;1659807;85;21166;-39
2021/09/07 05:25:31;;;;;;;7.17;4.37;;;;;;;6.97;76.53;101570.27;1602790;84;21275;31
2021/09/07 05:28:11;;;;;;;7.85;4.80;;;;;;;7.27;75.89;101562.63;1533972;89;22559;-36
2021/09/07 05:31:23;;;;;;;8.80;4.90;;;;;;;7.50;75.33;101568.59;1542775;88;21145;-37
2021/09/07 05:34:50;;;;;;;12.25;5.40;;;;;;;7.69;74.78;101572.23;1580270;87;21053;-36
2021/09/07 05:37:40;;;;;;;14.73;5.60;;;;;;;7.98;74.07;101574.45;1578997;88;21151;-38
2021/09/07 05:48:14;;;;;;;10.13;5.92;;;;;;;8.76;73.12;101581.58;1577442;88;21096;-35
2021/09/07 05:50:49;;;;;;;11.12;6.17;;;;;;;9.01;72.49;101577.02;1556658;88;21584;-38
2021/09/07 05:53:24;;;;;;;14.10;5.92;;;;;;;9.15;71.82;101573.45;1545189;88;21147;-38
2021/09/07 05:56:23;;;;;;;12.63;5.10;;;;;;;9.33;71.36;101581.76;1566866;89;21113;-38
2021/09/07 05:59:38;;;;;;;8.80;4.90;;;;;;;9.53;70.92;101579.66;1582579;88;22664;-38
2021/09/07 06:02:52;;;;;;;12.73;5.62;;;;;;;9.74;70.70;101576.66;1646187;83;21307;-37
2021/09/07 06:05:27;;;;;;;15.28;6.22;;;;;;;9.91;70.60;101580.55;1643109;83;21609;-38
2021/09/07 06:08:33;;;;;;;15.98;5.85;;;;;;;10.08;70.60;101577.02;1669213;82;21471;-38
2021/09/07 06:11:45;;;;;;;14.23;5.83;;;;;;;10.27;70.26;101579.66;1643181;82;21004;-38
2021/09/07 06:14:21;;;;;;;19.10;6.00;;;;;;;10.47;69.65;101582.27;1579011;87;21980;-38
2021/09/07 06:21:26;;;;;;;10.48;5.30;;;;;;;10.82;67.85;101579.47;1676027;80;21238;-38
2021/09/07 06:28:09;;;;;;;8.15;4.87;;;;;;;11.29;65.59;101574.21;1611272;85;21113;-39
2021/09/07 06:56:00;;;;;;;6.53;2.35;;;;;;;13.11;54.62;101576.75;1559715;86;21215;31
2021/09/07 08:13:56;;;;;;;3.15;1.77;;;;;;;16.19;40.76;101595.09;1674676;82;21159;-38
2021/09/07 08:16:52;;;;;;;6.62;1.80;;;;;;;16.31;39.52;101586.25;1714535;81;21009;-36
2021/09/07 08:23:46;;;;;;;4.40;2.20;;;;;;;16.46;39.48;101582.66;1679340;81;21095;-38
2021/09/07 08:26:37;;;;;;;3.98;1.87;;;;;;;16.68;39.79;101583.45;1668535;82;22407;-36
2021/09/07 09:29:54;;;;;;;2.15;1.40;;;;;;;17.80;36.26;101569.06;1512035;92;21636;-39
2021/09/07 09:32:42;;;;;;;5.55;2.60;;;;;;;17.98;36.21;101560.93;1470878;95;21160;-38
2021/09/07 09:49:18;;;;;;;14.35;5.12;;;;;;;18.29;34.51;101564.55;1624108;85;21028;-40
2021/09/07 09:51:58;;;;;;;5.78;2.60;;;;;;;18.43;34.71;101561.27;1603512;87;21121;-36
2021/09/07 09:54:45;;;;;;;4.75;1.82;;;;;;;18.58;33.50;101561.54;1684010;82;21441;-37
2021/09/07 09:57:20;;;;;;;5.78;1.85;;;;;;;18.53;32.78;101552.32;1622804;83;21592;-39
2021/09/07 10:00:13;;;;;;;2.90;1.65;;;;;;;18.46;33.58;101557.27;1683153;82;21033;-38
2021/09/07 10:02:46;;;;;;;3.15;1.22;;;;;;;18.39;33.07;101549.44;1673735;82;22006;-40
2021/09/07 10:27:27;;;;;;;2.05;1.27;;;;;;;19.48;31.86;101541.66;1585204;85;21292;-38
2021/09/07 10:38:30;;;;;;;1.92;1.22;;;;;;;21.20;29.25;101528.37;1600207;84;21193;-36
2021/09/07 10:45:15;;;;;;;2.92;1.30;;;;;;;22.72;26.58;101523.30;1612444;86;21001;-39
2021/09/07 10:48:06;;;;;;;4.53;1.90;;;;;;;23.20;26.51;101516.49;1619221;86;21123;-37
2021/09/07 11:21:09;;;;;;;;;;;;;;;24.28;24.46;101500.60;1675804;82;21023;-36
2021/09/07 11:23:48;;;;;;;3.25;1.82;;;;;;;23.70;24.80;101496.53;1632938;83;20214;-39
2021/09/07 11:30:48;;;;;;;5.65;1.75;;;;;;;22.90;25.55;101491.66;1682221;81;21276;-39
2021/09/07 12:02:34;;;;;;;2.50;1.50;;;;;;;20.24;29.25;101465.44;1658294;84;21244;-40
2021/09/07 12:07:57;;;;;;;4.50;1.17;;;;;;;20.20;29.61;101463.29;1662918;83;21103;-41
2021/09/07 12:10:44;;;;;;;2.17;1.67;;;;;;;20.24;29.95;101458.80;1665116;83;21125;-42
2021/09/07 12:13:34;;;;;;;1.95;1.25;;;;;;;20.31;29.82;101458.62;1647304;83;21793;-37
2021/09/07 12:16:24;;;;;;;4.65;1.50;;;;;;;20.30;30.08;101461.31;1640265;83;21061;-41
2021/09/07 12:19:31;;;;;;;2.98;1.52;;;;;;;20.27;29.66;101454.27;1623438;85;21113;-37
2021/09/07 12:22:38;;;;;;;2.05;1.30;;;;;;;20.17;29.16;101448.27;1621099;84;21100;-37
2021/09/07 12:28:41;;;;;;;3.30;1.90;;;;;;;19.92;29.56;101445.27;1665545;83;21184;-38
2021/09/07 12:31:37;;;;;;;2.00;1.30;;;;;;;19.85;29.60;101444.10;1647613;85;21191;-38
2021/09/07 12:34:50;;;;;;;3.92;1.67;;;;;;;19.74;29.71;101439.00;1640684;85;21042;-38
2021/09/07 12:37:25;;;;;;;3.98;1.45;;;;;;;19.61;29.69;101436.17;1635291;85;21181;-38
2021/09/07 12:39:54;;;;;;;5.42;1.70;;;;;;;19.52;29.82;101431.00;1662237;84;21676;-38
2021/09/07 12:42:22;;;;;;;2.17;1.60;;;;;;;19.49;29.84;101436.38;1630628;85;21714;-38
2021/09/07 12:44:50;;;;;;;2.77;2.00;;;;;;;19.56;30.39;101436.22;1634195;83;20966;-38
2021/09/07 12:47:19;;;;;;;1.75;1.45;;;;;;;19.54;30.23;101433.16;1556205;86;21104;-38
2021/09/07 12:49:47;;;;;;;3.70;1.42;;;;;;;19.53;30.20;101428.30;1645910;84;21901;-38
2021/09/07 12:52:16;;;;;;;3.47;1.60;;;;;;;19.67;30.73;101422.78;1587419;86;21206;-42
2021/09/07 12:54:52;;;;;;;2.50;1.40;;;;;;;19.82;30.09;101418.92;1612250;86;21148;-41
2021/09/07 12:59:48;;;;;;;2.50;1.40;;;;;;;20.15;30.15;101418.67;1666664;83;21535;-38
2021/09/07 13:07:37;;;;;;;2.95;1.87;;;;;;;20.58;29.31;101403.09;1640368;83;21232;-37
2021/09/07 13:10:56;;;;;;;7.90;1.70;;;;;;;20.59;28.92;101399.09;1639653;84;21227;-38
2021/09/07 13:19:27;;;;;;;2.98;1.85;;;;;;;20.63;28.99;101387.45;1616545;86;21722;-41
2021/09/07 13:22:08;;;;;;;5.58;1.65;;;;;;;20.86;29.23;101386.02;1581007;88;21161;-42
2021/09/07 13:25:20;;;;;;;4.28;1.75;;;;;;;20.97;29.14;101390.60;1593631;88;21091;-37
2021/09/07 13:28:09;;;;;;;2.62;1.80;;;;;;;20.96;28.42;101386.20;1570248;85;21162;-38
2021/09/07 13:30:37;;;;;;;1.95;1.37;;;;;;;21.09;29.05;101385.42;1554313;89;21158;-39
2021/09/07 13:33:06;;;;;;;3.05;1.47;;;;;;;21.36;28.48;101388.71;1530421;90;21187;-38
2021/09/07 13:40:02;;;;;;;4.83;1.92;;;;;;;21.38;28.48;101387.33;1605323;87;21061;-41
2021/09/07 13:42:57;;;;;;;1.90;1.25;;;;;;;21.30;28.03;101386.22;1619629;85;21177;-40
2021/09/07 13:45:27;;;;;;;4.83;1.50;;;;;;;21.34;27.70;101381.23;1632586;86;21054;-41
2021/09/07 13:50:24;;;;;;;3.65;1.80;;;;;;;21.38;27.58;101374.02;1619668;86;21571;-42
2021/09/07 13:52:53;;;;;;;2.45;1.30;;;;;;;21.44;27.90;101371.19;1587507;88;21201;-38
2021/09/07 13:55:22;;;;;;;2.55;1.17;;;;;;;21.49;27.21;101376.80;1580708;86;21125;-42
2021/09/07 13:57:53;;;;;;;1.92;1.30;;;;;;;21.56;27.16;101374.83;1543570;86;21157;-42
2021/09/07 14:00:22;;;;;;;4.22;1.70;;;;;;;21.63;27.15;101369.77;1617298;86;21105;-38
2021/09/07 14:02:50;;;;;;;1.92;1.60;;;;;;;21.72;27.26;101367.28;1649217;84;21637;-39
2021/09/07 14:05:26;;;;;;;1.75;1.45;;;;;;;21.70;27.49;101367.33;1614871;83;21028;-41
2021/09/07 14:10:35;;;;;;;6.37;1.95;;;;;;;21.40;26.92;101362.89;1695562;81;21535;-39
